<?xml version="1.0" encoding="UTF-8" standalone="no" ?>
<gpx xmlns="http://www.topografix.com/GPX/1/1" creator="MapSource 6.11.6" version="1.1" xmlns:xsi="http://www.w3.org/2001/XMLSchema-instance" xsi:schemaLocation="http://www.topografix.com/GPX/1/1 http://www.topografix.com/GPX/1/1/gpx.xsd">

  <metadata>
    <link href="http://www.garmin.com">
      <text>Garmin International</text>
    </link>
    <time>2009-07-19T15:02:35Z</time>
    <bounds maxlat="50.754120" maxlon="6.380958" minlat="50.732880" minlon="6.351237"/>
  </metadata>

  <trk>
    <name>Grosshau - Weberbach - Wehebachtalsperre RW</name>
    <extensions>
      <gpxx:TrackExtension xmlns:gpxx="http://www.garmin.com/xmlschemas/GpxExtensions/v3" xmlns:xsi="http://www.w3.org/2001/XMLSchema-instance" xsi:schemaLocation="http://www.garmin.com/xmlschemas/GpxExtensions/v3 http://www.garmin.com/xmlschemas/GpxExtensions/v3/GpxExtensionsv3.xsd">
        <gpxx:DisplayColor>White</gpxx:DisplayColor>
      </gpxx:TrackExtension>
    </extensions>
    <trkseg>
      <trkpt lat="50.735082" lon="6.380958">
        <ele>368.300000</ele>
        <time>2009-07-19T16:59:35Z</time>
      </trkpt>
      <trkpt lat="50.735132" lon="6.380788">
        <ele>369.300000</ele>
        <time>2009-07-19T16:59:44Z</time>
      </trkpt>
      <trkpt lat="50.735148" lon="6.380558">
        <ele>368.800000</ele>
        <time>2009-07-19T16:59:56Z</time>
      </trkpt>
      <trkpt lat="50.735210" lon="6.380408">
        <ele>367.800000</ele>
        <time>2009-07-19T17:00:06Z</time>
      </trkpt>
      <trkpt lat="50.735215" lon="6.380165">
        <ele>367.400000</ele>
        <time>2009-07-19T17:00:18Z</time>
      </trkpt>
      <trkpt lat="50.735280" lon="6.379968">
        <ele>367.800000</ele>
        <time>2009-07-19T17:00:30Z</time>
      </trkpt>
      <trkpt lat="50.735275" lon="6.379952">
        <ele>367.400000</ele>
        <time>2009-07-19T17:00:30Z</time>
      </trkpt>
      <trkpt lat="50.735212" lon="6.379700">
        <ele>365.900000</ele>
        <time>2009-07-19T17:00:45Z</time>
      </trkpt>
      <trkpt lat="50.735190" lon="6.379542">
        <ele>365.900000</ele>
        <time>2009-07-19T17:00:53Z</time>
      </trkpt>
      <trkpt lat="50.735157" lon="6.379457">
        <ele>365.400000</ele>
        <time>2009-07-19T17:00:58Z</time>
      </trkpt>
      <trkpt lat="50.735065" lon="6.379317">
        <ele>365.000000</ele>
        <time>2009-07-19T17:01:09Z</time>
      </trkpt>
      <trkpt lat="50.735008" lon="6.379280">
        <ele>364.500000</ele>
        <time>2009-07-19T17:01:13Z</time>
      </trkpt>
      <trkpt lat="50.734892" lon="6.379102">
        <ele>364.500000</ele>
        <time>2009-07-19T17:01:27Z</time>
      </trkpt>
      <trkpt lat="50.734762" lon="6.378940">
        <ele>365.400000</ele>
        <time>2009-07-19T17:01:40Z</time>
      </trkpt>
      <trkpt lat="50.734637" lon="6.378767">
        <ele>364.000000</ele>
        <time>2009-07-19T17:01:54Z</time>
      </trkpt>
      <trkpt lat="50.734498" lon="6.378575">
        <ele>359.200000</ele>
        <time>2009-07-19T17:02:09Z</time>
      </trkpt>
      <trkpt lat="50.734487" lon="6.378563">
        <ele>364.500000</ele>
        <time>2009-07-19T17:02:10Z</time>
      </trkpt>
      <trkpt lat="50.734377" lon="6.378453">
        <ele>361.600000</ele>
        <time>2009-07-19T17:02:21Z</time>
      </trkpt>
      <trkpt lat="50.734207" lon="6.378277">
        <ele>361.100000</ele>
        <time>2009-07-19T17:02:37Z</time>
      </trkpt>
      <trkpt lat="50.734035" lon="6.378060">
        <ele>361.100000</ele>
        <time>2009-07-19T17:02:55Z</time>
      </trkpt>
      <trkpt lat="50.733897" lon="6.377915">
        <ele>359.700000</ele>
        <time>2009-07-19T17:03:09Z</time>
      </trkpt>
      <trkpt lat="50.733742" lon="6.377705">
        <ele>358.700000</ele>
        <time>2009-07-19T17:03:26Z</time>
      </trkpt>
      <trkpt lat="50.733622" lon="6.377472">
        <ele>357.700000</ele>
        <time>2009-07-19T17:03:41Z</time>
      </trkpt>
      <trkpt lat="50.733525" lon="6.377142">
        <ele>356.300000</ele>
        <time>2009-07-19T17:04:00Z</time>
      </trkpt>
      <trkpt lat="50.733443" lon="6.376798">
        <ele>354.900000</ele>
        <time>2009-07-19T17:04:19Z</time>
      </trkpt>
      <trkpt lat="50.733373" lon="6.376447">
        <ele>353.900000</ele>
        <time>2009-07-19T17:04:38Z</time>
      </trkpt>
      <trkpt lat="50.733337" lon="6.376077">
        <ele>352.900000</ele>
        <time>2009-07-19T17:04:57Z</time>
      </trkpt>
      <trkpt lat="50.733450" lon="6.375825">
        <ele>352.900000</ele>
        <time>2009-07-19T17:05:13Z</time>
      </trkpt>
      <trkpt lat="50.733528" lon="6.375518">
        <ele>351.000000</ele>
        <time>2009-07-19T17:05:31Z</time>
      </trkpt>
      <trkpt lat="50.733353" lon="6.375220">
        <ele>348.100000</ele>
        <time>2009-07-19T17:05:52Z</time>
      </trkpt>
      <trkpt lat="50.733327" lon="6.375195">
        <ele>347.200000</ele>
        <time>2009-07-19T17:05:54Z</time>
      </trkpt>
      <trkpt lat="50.733088" lon="6.374807">
        <ele>346.200000</ele>
        <time>2009-07-19T17:06:22Z</time>
      </trkpt>
      <trkpt lat="50.733063" lon="6.374338">
        <ele>345.300000</ele>
        <time>2009-07-19T17:06:46Z</time>
      </trkpt>
      <trkpt lat="50.733150" lon="6.373865">
        <ele>342.800000</ele>
        <time>2009-07-19T17:07:12Z</time>
      </trkpt>
      <trkpt lat="50.733302" lon="6.373380">
        <ele>341.900000</ele>
        <time>2009-07-19T17:07:40Z</time>
      </trkpt>
      <trkpt lat="50.733378" lon="6.372935">
        <ele>340.000000</ele>
        <time>2009-07-19T17:08:04Z</time>
      </trkpt>
      <trkpt lat="50.733400" lon="6.372417">
        <ele>339.000000</ele>
        <time>2009-07-19T17:08:31Z</time>
      </trkpt>
      <trkpt lat="50.733418" lon="6.371845">
        <ele>336.600000</ele>
        <time>2009-07-19T17:09:00Z</time>
      </trkpt>
      <trkpt lat="50.733372" lon="6.371235">
        <ele>334.200000</ele>
        <time>2009-07-19T17:09:32Z</time>
      </trkpt>
      <trkpt lat="50.733308" lon="6.370807">
        <ele>333.200000</ele>
        <time>2009-07-19T17:09:55Z</time>
      </trkpt>
      <trkpt lat="50.733267" lon="6.370313">
        <ele>331.800000</ele>
        <time>2009-07-19T17:10:21Z</time>
      </trkpt>
      <trkpt lat="50.733317" lon="6.369980">
        <ele>331.800000</ele>
        <time>2009-07-19T17:10:38Z</time>
      </trkpt>
      <trkpt lat="50.733375" lon="6.369650">
        <ele>330.800000</ele>
        <time>2009-07-19T17:10:56Z</time>
      </trkpt>
      <trkpt lat="50.733400" lon="6.369337">
        <ele>329.900000</ele>
        <time>2009-07-19T17:11:12Z</time>
      </trkpt>
      <trkpt lat="50.733323" lon="6.369043">
        <ele>328.900000</ele>
        <time>2009-07-19T17:11:29Z</time>
      </trkpt>
      <trkpt lat="50.733200" lon="6.368850">
        <ele>327.900000</ele>
        <time>2009-07-19T17:11:43Z</time>
      </trkpt>
      <trkpt lat="50.733013" lon="6.368593">
        <ele>327.000000</ele>
        <time>2009-07-19T17:12:03Z</time>
      </trkpt>
      <trkpt lat="50.732903" lon="6.368332">
        <ele>327.000000</ele>
        <time>2009-07-19T17:12:20Z</time>
      </trkpt>
      <trkpt lat="50.732880" lon="6.368010">
        <ele>326.000000</ele>
        <time>2009-07-19T17:12:36Z</time>
      </trkpt>
      <trkpt lat="50.732917" lon="6.367713">
        <ele>325.500000</ele>
        <time>2009-07-19T17:12:52Z</time>
      </trkpt>
      <trkpt lat="50.732960" lon="6.367413">
        <ele>324.100000</ele>
        <time>2009-07-19T17:13:08Z</time>
      </trkpt>
      <trkpt lat="50.733023" lon="6.367095">
        <ele>322.200000</ele>
        <time>2009-07-19T17:13:25Z</time>
      </trkpt>
      <trkpt lat="50.733158" lon="6.366773">
        <ele>322.200000</ele>
        <time>2009-07-19T17:13:45Z</time>
      </trkpt>
      <trkpt lat="50.733350" lon="6.366495">
        <ele>321.200000</ele>
        <time>2009-07-19T17:14:07Z</time>
      </trkpt>
      <trkpt lat="50.733545" lon="6.366348">
        <ele>320.300000</ele>
        <time>2009-07-19T17:14:24Z</time>
      </trkpt>
      <trkpt lat="50.733660" lon="6.366277">
        <ele>319.800000</ele>
        <time>2009-07-19T17:14:34Z</time>
      </trkpt>
      <trkpt lat="50.733755" lon="6.366205">
        <ele>319.800000</ele>
        <time>2009-07-19T17:14:43Z</time>
      </trkpt>
      <trkpt lat="50.733885" lon="6.366090">
        <ele>318.800000</ele>
        <time>2009-07-19T17:14:55Z</time>
      </trkpt>
      <trkpt lat="50.733935" lon="6.366050">
        <ele>318.800000</ele>
        <time>2009-07-19T17:15:00Z</time>
      </trkpt>
      <trkpt lat="50.733990" lon="6.365992">
        <ele>317.900000</ele>
        <time>2009-07-19T17:15:05Z</time>
      </trkpt>
      <trkpt lat="50.734080" lon="6.365853">
        <ele>317.400000</ele>
        <time>2009-07-19T17:15:15Z</time>
      </trkpt>
      <trkpt lat="50.734190" lon="6.365763">
        <ele>315.900000</ele>
        <time>2009-07-19T17:15:25Z</time>
      </trkpt>
      <trkpt lat="50.734363" lon="6.365695">
        <ele>315.000000</ele>
        <time>2009-07-19T17:15:40Z</time>
      </trkpt>
      <trkpt lat="50.734578" lon="6.365653">
        <ele>315.000000</ele>
        <time>2009-07-19T17:15:58Z</time>
      </trkpt>
      <trkpt lat="50.734848" lon="6.365580">
        <ele>312.600000</ele>
        <time>2009-07-19T17:16:20Z</time>
      </trkpt>
      <trkpt lat="50.735010" lon="6.365535">
        <ele>311.600000</ele>
        <time>2009-07-19T17:16:34Z</time>
      </trkpt>
      <trkpt lat="50.735205" lon="6.365372">
        <ele>311.100000</ele>
        <time>2009-07-19T17:16:52Z</time>
      </trkpt>
      <trkpt lat="50.735380" lon="6.365162">
        <ele>310.600000</ele>
        <time>2009-07-19T17:17:10Z</time>
      </trkpt>
      <trkpt lat="50.735595" lon="6.365107">
        <ele>309.700000</ele>
        <time>2009-07-19T17:17:28Z</time>
      </trkpt>
      <trkpt lat="50.735612" lon="6.365113">
        <ele>308.700000</ele>
        <time>2009-07-19T17:17:29Z</time>
      </trkpt>
      <trkpt lat="50.735872" lon="6.365172">
        <ele>308.700000</ele>
        <time>2009-07-19T17:17:50Z</time>
      </trkpt>
      <trkpt lat="50.736117" lon="6.365153">
        <ele>306.800000</ele>
        <time>2009-07-19T17:18:10Z</time>
      </trkpt>
      <trkpt lat="50.736355" lon="6.365165">
        <ele>304.400000</ele>
        <time>2009-07-19T17:18:30Z</time>
      </trkpt>
      <trkpt lat="50.736502" lon="6.365140">
        <ele>303.900000</ele>
        <time>2009-07-19T17:18:42Z</time>
      </trkpt>
      <trkpt lat="50.736625" lon="6.365048">
        <ele>303.000000</ele>
        <time>2009-07-19T17:18:53Z</time>
      </trkpt>
      <trkpt lat="50.736607" lon="6.364838">
        <ele>302.000000</ele>
        <time>2009-07-19T17:19:04Z</time>
      </trkpt>
      <trkpt lat="50.736593" lon="6.364822">
        <ele>301.000000</ele>
        <time>2009-07-19T17:19:06Z</time>
      </trkpt>
      <trkpt lat="50.736497" lon="6.364737">
        <ele>301.000000</ele>
        <time>2009-07-19T17:19:15Z</time>
      </trkpt>
      <trkpt lat="50.736275" lon="6.364557">
        <ele>301.000000</ele>
        <time>2009-07-19T17:19:35Z</time>
      </trkpt>
      <trkpt lat="50.736128" lon="6.364453">
        <ele>299.600000</ele>
        <time>2009-07-19T17:19:48Z</time>
      </trkpt>
      <trkpt lat="50.735992" lon="6.364333">
        <ele>298.600000</ele>
        <time>2009-07-19T17:20:01Z</time>
      </trkpt>
      <trkpt lat="50.735903" lon="6.364105">
        <ele>298.100000</ele>
        <time>2009-07-19T17:20:15Z</time>
      </trkpt>
      <trkpt lat="50.735903" lon="6.363800">
        <ele>296.700000</ele>
        <time>2009-07-19T17:20:31Z</time>
      </trkpt>
      <trkpt lat="50.735903" lon="6.363692">
        <ele>295.700000</ele>
        <time>2009-07-19T17:20:36Z</time>
      </trkpt>
      <trkpt lat="50.735902" lon="6.363413">
        <ele>294.800000</ele>
        <time>2009-07-19T17:20:51Z</time>
      </trkpt>
      <trkpt lat="50.735887" lon="6.363082">
        <ele>293.300000</ele>
        <time>2009-07-19T17:21:08Z</time>
      </trkpt>
      <trkpt lat="50.735878" lon="6.362795">
        <ele>291.900000</ele>
        <time>2009-07-19T17:21:23Z</time>
      </trkpt>
      <trkpt lat="50.735890" lon="6.362488">
        <ele>291.400000</ele>
        <time>2009-07-19T17:21:39Z</time>
      </trkpt>
      <trkpt lat="50.735938" lon="6.362178">
        <ele>290.900000</ele>
        <time>2009-07-19T17:21:55Z</time>
      </trkpt>
      <trkpt lat="50.736008" lon="6.361820">
        <ele>288.500000</ele>
        <time>2009-07-19T17:22:15Z</time>
      </trkpt>
      <trkpt lat="50.736120" lon="6.361455">
        <ele>286.600000</ele>
        <time>2009-07-19T17:22:36Z</time>
      </trkpt>
      <trkpt lat="50.736243" lon="6.361247">
        <ele>285.200000</ele>
        <time>2009-07-19T17:22:50Z</time>
      </trkpt>
      <trkpt lat="50.736432" lon="6.361023">
        <ele>283.700000</ele>
        <time>2009-07-19T17:23:10Z</time>
      </trkpt>
      <trkpt lat="50.736537" lon="6.360875">
        <ele>282.800000</ele>
        <time>2009-07-19T17:23:21Z</time>
      </trkpt>
      <trkpt lat="50.736563" lon="6.360850">
        <ele>282.800000</ele>
        <time>2009-07-19T17:23:24Z</time>
      </trkpt>
      <trkpt lat="50.736625" lon="6.360737">
        <ele>282.300000</ele>
        <time>2009-07-19T17:23:31Z</time>
      </trkpt>
      <trkpt lat="50.736698" lon="6.360368">
        <ele>281.300000</ele>
        <time>2009-07-19T17:23:51Z</time>
      </trkpt>
      <trkpt lat="50.736757" lon="6.360148">
        <ele>280.800000</ele>
        <time>2009-07-19T17:24:04Z</time>
      </trkpt>
      <trkpt lat="50.736760" lon="6.360100">
        <ele>280.400000</ele>
        <time>2009-07-19T17:24:06Z</time>
      </trkpt>
      <trkpt lat="50.736790" lon="6.359972">
        <ele>280.400000</ele>
        <time>2009-07-19T17:24:13Z</time>
      </trkpt>
      <trkpt lat="50.736837" lon="6.359697">
        <ele>277.000000</ele>
        <time>2009-07-19T17:24:28Z</time>
      </trkpt>
      <trkpt lat="50.736843" lon="6.359485">
        <ele>277.000000</ele>
        <time>2009-07-19T17:24:39Z</time>
      </trkpt>
      <trkpt lat="50.736830" lon="6.359422">
        <ele>277.000000</ele>
        <time>2009-07-19T17:24:42Z</time>
      </trkpt>
      <trkpt lat="50.736845" lon="6.359228">
        <ele>276.000000</ele>
        <time>2009-07-19T17:24:53Z</time>
      </trkpt>
      <trkpt lat="50.736850" lon="6.359185">
        <ele>275.600000</ele>
        <time>2009-07-19T17:24:55Z</time>
      </trkpt>
      <trkpt lat="50.736863" lon="6.358827">
        <ele>274.600000</ele>
        <time>2009-07-19T17:25:13Z</time>
      </trkpt>
      <trkpt lat="50.736895" lon="6.358808">
        <ele>273.600000</ele>
        <time>2009-07-19T17:25:16Z</time>
      </trkpt>
      <trkpt lat="50.736990" lon="6.358847">
        <ele>274.600000</ele>
        <time>2009-07-19T17:25:24Z</time>
      </trkpt>
      <trkpt lat="50.736987" lon="6.358847">
        <ele>276.500000</ele>
        <time>2009-07-19T17:25:24Z</time>
      </trkpt>
      <trkpt lat="50.736968" lon="6.358792">
        <ele>276.000000</ele>
        <time>2009-07-19T17:25:28Z</time>
      </trkpt>
      <trkpt lat="50.736978" lon="6.358643">
        <ele>277.500000</ele>
        <time>2009-07-19T17:25:35Z</time>
      </trkpt>
      <trkpt lat="50.736960" lon="6.358525">
        <ele>277.500000</ele>
        <time>2009-07-19T17:25:42Z</time>
      </trkpt>
      <trkpt lat="50.736935" lon="6.358312">
        <ele>278.900000</ele>
        <time>2009-07-19T17:25:53Z</time>
      </trkpt>
      <trkpt lat="50.736913" lon="6.358087">
        <ele>279.400000</ele>
        <time>2009-07-19T17:26:05Z</time>
      </trkpt>
      <trkpt lat="50.736893" lon="6.357790">
        <ele>279.400000</ele>
        <time>2009-07-19T17:26:20Z</time>
      </trkpt>
      <trkpt lat="50.736892" lon="6.357475">
        <ele>280.400000</ele>
        <time>2009-07-19T17:26:36Z</time>
      </trkpt>
      <trkpt lat="50.736867" lon="6.357142">
        <ele>282.300000</ele>
        <time>2009-07-19T17:26:54Z</time>
      </trkpt>
      <trkpt lat="50.736868" lon="6.356842">
        <ele>283.200000</ele>
        <time>2009-07-19T17:27:09Z</time>
      </trkpt>
      <trkpt lat="50.736875" lon="6.356820">
        <ele>283.200000</ele>
        <time>2009-07-19T17:27:11Z</time>
      </trkpt>
      <trkpt lat="50.736895" lon="6.356692">
        <ele>283.700000</ele>
        <time>2009-07-19T17:27:17Z</time>
      </trkpt>
      <trkpt lat="50.736942" lon="6.356548">
        <ele>284.200000</ele>
        <time>2009-07-19T17:27:26Z</time>
      </trkpt>
      <trkpt lat="50.736935" lon="6.356463">
        <ele>284.700000</ele>
        <time>2009-07-19T17:27:30Z</time>
      </trkpt>
      <trkpt lat="50.736945" lon="6.356380">
        <ele>285.200000</ele>
        <time>2009-07-19T17:27:35Z</time>
      </trkpt>
      <trkpt lat="50.736918" lon="6.356082">
        <ele>286.100000</ele>
        <time>2009-07-19T17:27:50Z</time>
      </trkpt>
      <trkpt lat="50.736858" lon="6.355830">
        <ele>287.100000</ele>
        <time>2009-07-19T17:28:04Z</time>
      </trkpt>
      <trkpt lat="50.736773" lon="6.355583">
        <ele>288.500000</ele>
        <time>2009-07-19T17:28:19Z</time>
      </trkpt>
      <trkpt lat="50.736708" lon="6.355427">
        <ele>288.500000</ele>
        <time>2009-07-19T17:28:28Z</time>
      </trkpt>
      <trkpt lat="50.736667" lon="6.355327">
        <ele>289.000000</ele>
        <time>2009-07-19T17:28:34Z</time>
      </trkpt>
      <trkpt lat="50.736560" lon="6.355058">
        <ele>290.900000</ele>
        <time>2009-07-19T17:28:51Z</time>
      </trkpt>
      <trkpt lat="50.736443" lon="6.354788">
        <ele>292.400000</ele>
        <time>2009-07-19T17:29:08Z</time>
      </trkpt>
      <trkpt lat="50.736322" lon="6.354482">
        <ele>294.300000</ele>
        <time>2009-07-19T17:29:27Z</time>
      </trkpt>
      <trkpt lat="50.736312" lon="6.354433">
        <ele>294.300000</ele>
        <time>2009-07-19T17:29:29Z</time>
      </trkpt>
      <trkpt lat="50.736285" lon="6.354347">
        <ele>294.800000</ele>
        <time>2009-07-19T17:29:34Z</time>
      </trkpt>
      <trkpt lat="50.736263" lon="6.354065">
        <ele>295.700000</ele>
        <time>2009-07-19T17:29:49Z</time>
      </trkpt>
      <trkpt lat="50.736273" lon="6.353840">
        <ele>295.700000</ele>
        <time>2009-07-19T17:30:01Z</time>
      </trkpt>
      <trkpt lat="50.736235" lon="6.353447">
        <ele>297.200000</ele>
        <time>2009-07-19T17:30:21Z</time>
      </trkpt>
      <trkpt lat="50.736187" lon="6.353115">
        <ele>298.100000</ele>
        <time>2009-07-19T17:30:39Z</time>
      </trkpt>
      <trkpt lat="50.736175" lon="6.352773">
        <ele>297.700000</ele>
        <time>2009-07-19T17:30:57Z</time>
      </trkpt>
      <trkpt lat="50.736178" lon="6.352387">
        <ele>297.700000</ele>
        <time>2009-07-19T17:31:17Z</time>
      </trkpt>
      <trkpt lat="50.736190" lon="6.352115">
        <ele>297.700000</ele>
        <time>2009-07-19T17:31:31Z</time>
      </trkpt>
      <trkpt lat="50.736247" lon="6.351735">
        <ele>297.700000</ele>
        <time>2009-07-19T17:31:51Z</time>
      </trkpt>
      <trkpt lat="50.736322" lon="6.351462">
        <ele>297.200000</ele>
        <time>2009-07-19T17:32:06Z</time>
      </trkpt>
      <trkpt lat="50.736458" lon="6.351280">
        <ele>296.200000</ele>
        <time>2009-07-19T17:32:21Z</time>
      </trkpt>
      <trkpt lat="50.736642" lon="6.351237">
        <ele>295.300000</ele>
        <time>2009-07-19T17:32:36Z</time>
      </trkpt>
      <trkpt lat="50.736808" lon="6.351257">
        <ele>296.200000</ele>
        <time>2009-07-19T17:32:50Z</time>
      </trkpt>
      <trkpt lat="50.736847" lon="6.351267">
        <ele>295.700000</ele>
        <time>2009-07-19T17:32:53Z</time>
      </trkpt>
      <trkpt lat="50.737003" lon="6.351312">
        <ele>296.200000</ele>
        <time>2009-07-19T17:33:06Z</time>
      </trkpt>
      <trkpt lat="50.737077" lon="6.351348">
        <ele>296.200000</ele>
        <time>2009-07-19T17:33:12Z</time>
      </trkpt>
      <trkpt lat="50.737233" lon="6.351488">
        <ele>297.200000</ele>
        <time>2009-07-19T17:33:27Z</time>
      </trkpt>
      <trkpt lat="50.737362" lon="6.351720">
        <ele>297.700000</ele>
        <time>2009-07-19T17:33:43Z</time>
      </trkpt>
      <trkpt lat="50.737442" lon="6.351940">
        <ele>297.700000</ele>
        <time>2009-07-19T17:33:56Z</time>
      </trkpt>
      <trkpt lat="50.737507" lon="6.352218">
        <ele>296.700000</ele>
        <time>2009-07-19T17:34:11Z</time>
      </trkpt>
      <trkpt lat="50.737582" lon="6.352472">
        <ele>297.200000</ele>
        <time>2009-07-19T17:34:26Z</time>
      </trkpt>
      <trkpt lat="50.737680" lon="6.352663">
        <ele>297.200000</ele>
        <time>2009-07-19T17:34:39Z</time>
      </trkpt>
      <trkpt lat="50.737688" lon="6.352667">
        <ele>293.800000</ele>
        <time>2009-07-19T17:34:39Z</time>
      </trkpt>
      <trkpt lat="50.737693" lon="6.352672">
        <ele>300.100000</ele>
        <time>2009-07-19T17:34:40Z</time>
      </trkpt>
      <trkpt lat="50.737692" lon="6.352672">
        <ele>297.200000</ele>
        <time>2009-07-19T17:34:40Z</time>
      </trkpt>
      <trkpt lat="50.737693" lon="6.352683">
        <ele>296.700000</ele>
        <time>2009-07-19T17:34:40Z</time>
      </trkpt>
      <trkpt lat="50.737845" lon="6.352847">
        <ele>296.200000</ele>
        <time>2009-07-19T17:34:55Z</time>
      </trkpt>
      <trkpt lat="50.737860" lon="6.352892">
        <ele>296.200000</ele>
        <time>2009-07-19T17:34:58Z</time>
      </trkpt>
      <trkpt lat="50.737910" lon="6.352955">
        <ele>296.200000</ele>
        <time>2009-07-19T17:35:03Z</time>
      </trkpt>
      <trkpt lat="50.737943" lon="6.353025">
        <ele>296.200000</ele>
        <time>2009-07-19T17:35:08Z</time>
      </trkpt>
      <trkpt lat="50.738010" lon="6.353193">
        <ele>295.700000</ele>
        <time>2009-07-19T17:35:18Z</time>
      </trkpt>
      <trkpt lat="50.738032" lon="6.353252">
        <ele>296.700000</ele>
        <time>2009-07-19T17:35:22Z</time>
      </trkpt>
      <trkpt lat="50.738133" lon="6.353465">
        <ele>296.700000</ele>
        <time>2009-07-19T17:35:35Z</time>
      </trkpt>
      <trkpt lat="50.738372" lon="6.353607">
        <ele>296.200000</ele>
        <time>2009-07-19T17:35:56Z</time>
      </trkpt>
      <trkpt lat="50.738497" lon="6.353625">
        <ele>296.700000</ele>
        <time>2009-07-19T17:36:07Z</time>
      </trkpt>
      <trkpt lat="50.738583" lon="6.353633">
        <ele>296.700000</ele>
        <time>2009-07-19T17:36:14Z</time>
      </trkpt>
      <trkpt lat="50.738608" lon="6.353637">
        <ele>296.700000</ele>
        <time>2009-07-19T17:36:16Z</time>
      </trkpt>
      <trkpt lat="50.738677" lon="6.353698">
        <ele>297.700000</ele>
        <time>2009-07-19T17:36:22Z</time>
      </trkpt>
      <trkpt lat="50.738670" lon="6.353757">
        <ele>297.200000</ele>
        <time>2009-07-19T17:36:25Z</time>
      </trkpt>
      <trkpt lat="50.738703" lon="6.353962">
        <ele>299.600000</ele>
        <time>2009-07-19T17:36:36Z</time>
      </trkpt>
      <trkpt lat="50.738717" lon="6.354108">
        <ele>301.500000</ele>
        <time>2009-07-19T17:36:44Z</time>
      </trkpt>
      <trkpt lat="50.738717" lon="6.354160">
        <ele>303.400000</ele>
        <time>2009-07-19T17:36:47Z</time>
      </trkpt>
      <trkpt lat="50.738713" lon="6.354260">
        <ele>303.900000</ele>
        <time>2009-07-19T17:36:52Z</time>
      </trkpt>
      <trkpt lat="50.738717" lon="6.354353">
        <ele>305.800000</ele>
        <time>2009-07-19T17:36:56Z</time>
      </trkpt>
      <trkpt lat="50.738713" lon="6.354525">
        <ele>306.800000</ele>
        <time>2009-07-19T17:37:05Z</time>
      </trkpt>
      <trkpt lat="50.738735" lon="6.354627">
        <ele>307.300000</ele>
        <time>2009-07-19T17:37:11Z</time>
      </trkpt>
      <trkpt lat="50.738778" lon="6.354815">
        <ele>309.700000</ele>
        <time>2009-07-19T17:37:21Z</time>
      </trkpt>
      <trkpt lat="50.738817" lon="6.355035">
        <ele>311.600000</ele>
        <time>2009-07-19T17:37:33Z</time>
      </trkpt>
      <trkpt lat="50.738817" lon="6.355195">
        <ele>313.000000</ele>
        <time>2009-07-19T17:37:41Z</time>
      </trkpt>
      <trkpt lat="50.738782" lon="6.355267">
        <ele>315.000000</ele>
        <time>2009-07-19T17:37:46Z</time>
      </trkpt>
      <trkpt lat="50.738782" lon="6.355415">
        <ele>317.900000</ele>
        <time>2009-07-19T17:37:54Z</time>
      </trkpt>
      <trkpt lat="50.738790" lon="6.355582">
        <ele>321.200000</ele>
        <time>2009-07-19T17:38:02Z</time>
      </trkpt>
      <trkpt lat="50.738790" lon="6.355722">
        <ele>323.600000</ele>
        <time>2009-07-19T17:38:10Z</time>
      </trkpt>
      <trkpt lat="50.738800" lon="6.355842">
        <ele>325.500000</ele>
        <time>2009-07-19T17:38:16Z</time>
      </trkpt>
      <trkpt lat="50.738800" lon="6.356093">
        <ele>327.900000</ele>
        <time>2009-07-19T17:38:29Z</time>
      </trkpt>
      <trkpt lat="50.738802" lon="6.356130">
        <ele>327.900000</ele>
        <time>2009-07-19T17:38:31Z</time>
      </trkpt>
      <trkpt lat="50.738813" lon="6.356260">
        <ele>329.900000</ele>
        <time>2009-07-19T17:38:38Z</time>
      </trkpt>
      <trkpt lat="50.738808" lon="6.356507">
        <ele>329.400000</ele>
        <time>2009-07-19T17:38:50Z</time>
      </trkpt>
      <trkpt lat="50.738795" lon="6.356615">
        <ele>329.400000</ele>
        <time>2009-07-19T17:38:56Z</time>
      </trkpt>
      <trkpt lat="50.738800" lon="6.356698">
        <ele>329.900000</ele>
        <time>2009-07-19T17:39:00Z</time>
      </trkpt>
      <trkpt lat="50.738842" lon="6.356760">
        <ele>329.400000</ele>
        <time>2009-07-19T17:39:05Z</time>
      </trkpt>
      <trkpt lat="50.738822" lon="6.356955">
        <ele>328.900000</ele>
        <time>2009-07-19T17:39:15Z</time>
      </trkpt>
      <trkpt lat="50.738797" lon="6.357037">
        <ele>329.900000</ele>
        <time>2009-07-19T17:39:20Z</time>
      </trkpt>
      <trkpt lat="50.738770" lon="6.357233">
        <ele>329.400000</ele>
        <time>2009-07-19T17:39:30Z</time>
      </trkpt>
      <trkpt lat="50.738760" lon="6.357543">
        <ele>328.900000</ele>
        <time>2009-07-19T17:39:46Z</time>
      </trkpt>
      <trkpt lat="50.738760" lon="6.357800">
        <ele>329.400000</ele>
        <time>2009-07-19T17:40:00Z</time>
      </trkpt>
      <trkpt lat="50.738723" lon="6.358085">
        <ele>331.300000</ele>
        <time>2009-07-19T17:40:15Z</time>
      </trkpt>
      <trkpt lat="50.738698" lon="6.358383">
        <ele>330.800000</ele>
        <time>2009-07-19T17:40:30Z</time>
      </trkpt>
      <trkpt lat="50.738678" lon="6.358753">
        <ele>330.400000</ele>
        <time>2009-07-19T17:40:50Z</time>
      </trkpt>
      <trkpt lat="50.738667" lon="6.358892">
        <ele>329.900000</ele>
        <time>2009-07-19T17:40:57Z</time>
      </trkpt>
      <trkpt lat="50.738668" lon="6.359012">
        <ele>329.400000</ele>
        <time>2009-07-19T17:41:03Z</time>
      </trkpt>
      <trkpt lat="50.738672" lon="6.359112">
        <ele>328.400000</ele>
        <time>2009-07-19T17:41:08Z</time>
      </trkpt>
      <trkpt lat="50.738677" lon="6.359465">
        <ele>329.400000</ele>
        <time>2009-07-19T17:41:26Z</time>
      </trkpt>
      <trkpt lat="50.738647" lon="6.359645">
        <ele>327.500000</ele>
        <time>2009-07-19T17:41:36Z</time>
      </trkpt>
      <trkpt lat="50.738637" lon="6.359933">
        <ele>326.500000</ele>
        <time>2009-07-19T17:41:51Z</time>
      </trkpt>
      <trkpt lat="50.738593" lon="6.360102">
        <ele>326.000000</ele>
        <time>2009-07-19T17:42:01Z</time>
      </trkpt>
      <trkpt lat="50.738592" lon="6.360463">
        <ele>326.000000</ele>
        <time>2009-07-19T17:42:19Z</time>
      </trkpt>
      <trkpt lat="50.738585" lon="6.360767">
        <ele>326.000000</ele>
        <time>2009-07-19T17:42:35Z</time>
      </trkpt>
      <trkpt lat="50.738568" lon="6.361040">
        <ele>326.500000</ele>
        <time>2009-07-19T17:42:49Z</time>
      </trkpt>
      <trkpt lat="50.738568" lon="6.361292">
        <ele>327.900000</ele>
        <time>2009-07-19T17:43:02Z</time>
      </trkpt>
      <trkpt lat="50.738590" lon="6.361450">
        <ele>328.400000</ele>
        <time>2009-07-19T17:43:10Z</time>
      </trkpt>
      <trkpt lat="50.738613" lon="6.361655">
        <ele>330.800000</ele>
        <time>2009-07-19T17:43:21Z</time>
      </trkpt>
      <trkpt lat="50.738617" lon="6.361863">
        <ele>331.300000</ele>
        <time>2009-07-19T17:43:32Z</time>
      </trkpt>
      <trkpt lat="50.738610" lon="6.361980">
        <ele>330.400000</ele>
        <time>2009-07-19T17:43:38Z</time>
      </trkpt>
      <trkpt lat="50.738577" lon="6.362025">
        <ele>334.700000</ele>
        <time>2009-07-19T17:43:42Z</time>
      </trkpt>
      <trkpt lat="50.738575" lon="6.362030">
        <ele>328.900000</ele>
        <time>2009-07-19T17:43:42Z</time>
      </trkpt>
      <trkpt lat="50.738573" lon="6.362035">
        <ele>333.200000</ele>
        <time>2009-07-19T17:43:42Z</time>
      </trkpt>
      <trkpt lat="50.738593" lon="6.362060">
        <ele>327.900000</ele>
        <time>2009-07-19T17:43:44Z</time>
      </trkpt>
      <trkpt lat="50.738593" lon="6.362063">
        <ele>332.300000</ele>
        <time>2009-07-19T17:43:45Z</time>
      </trkpt>
      <trkpt lat="50.738573" lon="6.362075">
        <ele>328.400000</ele>
        <time>2009-07-19T17:43:46Z</time>
      </trkpt>
      <trkpt lat="50.738568" lon="6.362078">
        <ele>332.300000</ele>
        <time>2009-07-19T17:43:47Z</time>
      </trkpt>
      <trkpt lat="50.738548" lon="6.362092">
        <ele>331.800000</ele>
        <time>2009-07-19T17:43:48Z</time>
      </trkpt>
      <trkpt lat="50.738547" lon="6.362093">
        <ele>328.900000</ele>
        <time>2009-07-19T17:43:49Z</time>
      </trkpt>
      <trkpt lat="50.738538" lon="6.362093">
        <ele>334.700000</ele>
        <time>2009-07-19T17:43:49Z</time>
      </trkpt>
      <trkpt lat="50.738538" lon="6.362093">
        <ele>334.700000</ele>
        <time>2009-07-19T17:43:49Z</time>
      </trkpt>
      <trkpt lat="50.738537" lon="6.362093">
        <ele>328.900000</ele>
        <time>2009-07-19T17:43:50Z</time>
      </trkpt>
      <trkpt lat="50.738537" lon="6.362093">
        <ele>332.300000</ele>
        <time>2009-07-19T17:43:50Z</time>
      </trkpt>
      <trkpt lat="50.738537" lon="6.362095">
        <ele>335.200000</ele>
        <time>2009-07-19T17:43:50Z</time>
      </trkpt>
      <trkpt lat="50.738538" lon="6.362095">
        <ele>328.400000</ele>
        <time>2009-07-19T17:43:50Z</time>
      </trkpt>
      <trkpt lat="50.738538" lon="6.362093">
        <ele>331.800000</ele>
        <time>2009-07-19T17:43:50Z</time>
      </trkpt>
      <trkpt lat="50.738540" lon="6.362093">
        <ele>334.700000</ele>
        <time>2009-07-19T17:43:50Z</time>
      </trkpt>
      <trkpt lat="50.738545" lon="6.362093">
        <ele>328.400000</ele>
        <time>2009-07-19T17:43:50Z</time>
      </trkpt>
      <trkpt lat="50.738547" lon="6.362093">
        <ele>331.300000</ele>
        <time>2009-07-19T17:43:50Z</time>
      </trkpt>
      <trkpt lat="50.738548" lon="6.362090">
        <ele>332.800000</ele>
        <time>2009-07-19T17:43:51Z</time>
      </trkpt>
      <trkpt lat="50.738547" lon="6.362090">
        <ele>328.400000</ele>
        <time>2009-07-19T17:43:51Z</time>
      </trkpt>
      <trkpt lat="50.738547" lon="6.362088">
        <ele>333.200000</ele>
        <time>2009-07-19T17:43:51Z</time>
      </trkpt>
      <trkpt lat="50.738537" lon="6.362078">
        <ele>328.400000</ele>
        <time>2009-07-19T17:43:52Z</time>
      </trkpt>
      <trkpt lat="50.738533" lon="6.362078">
        <ele>332.300000</ele>
        <time>2009-07-19T17:43:52Z</time>
      </trkpt>
      <trkpt lat="50.738510" lon="6.362075">
        <ele>327.900000</ele>
        <time>2009-07-19T17:43:54Z</time>
      </trkpt>
      <trkpt lat="50.738505" lon="6.362073">
        <ele>331.300000</ele>
        <time>2009-07-19T17:43:54Z</time>
      </trkpt>
      <trkpt lat="50.738500" lon="6.362068">
        <ele>336.100000</ele>
        <time>2009-07-19T17:43:55Z</time>
      </trkpt>
      <trkpt lat="50.738500" lon="6.362067">
        <ele>332.800000</ele>
        <time>2009-07-19T17:43:55Z</time>
      </trkpt>
      <trkpt lat="50.738498" lon="6.362070">
        <ele>328.400000</ele>
        <time>2009-07-19T17:43:55Z</time>
      </trkpt>
      <trkpt lat="50.738498" lon="6.362072">
        <ele>332.300000</ele>
        <time>2009-07-19T17:43:55Z</time>
      </trkpt>
      <trkpt lat="50.738500" lon="6.362073">
        <ele>335.600000</ele>
        <time>2009-07-19T17:43:55Z</time>
      </trkpt>
      <trkpt lat="50.738500" lon="6.362073">
        <ele>328.400000</ele>
        <time>2009-07-19T17:43:55Z</time>
      </trkpt>
      <trkpt lat="50.738500" lon="6.362077">
        <ele>331.800000</ele>
        <time>2009-07-19T17:43:56Z</time>
      </trkpt>
      <trkpt lat="50.738532" lon="6.362070">
        <ele>335.200000</ele>
        <time>2009-07-19T17:43:58Z</time>
      </trkpt>
      <trkpt lat="50.738532" lon="6.362073">
        <ele>328.400000</ele>
        <time>2009-07-19T17:43:58Z</time>
      </trkpt>
      <trkpt lat="50.738533" lon="6.362080">
        <ele>331.800000</ele>
        <time>2009-07-19T17:43:59Z</time>
      </trkpt>
      <trkpt lat="50.738537" lon="6.362088">
        <ele>336.600000</ele>
        <time>2009-07-19T17:43:59Z</time>
      </trkpt>
      <trkpt lat="50.738538" lon="6.362088">
        <ele>336.600000</ele>
        <time>2009-07-19T17:43:59Z</time>
      </trkpt>
      <trkpt lat="50.738538" lon="6.362092">
        <ele>331.800000</ele>
        <time>2009-07-19T17:44:00Z</time>
      </trkpt>
      <trkpt lat="50.738540" lon="6.362100">
        <ele>331.800000</ele>
        <time>2009-07-19T17:44:00Z</time>
      </trkpt>
      <trkpt lat="50.738563" lon="6.362325">
        <ele>333.700000</ele>
        <time>2009-07-19T17:44:12Z</time>
      </trkpt>
      <trkpt lat="50.738565" lon="6.362517">
        <ele>336.600000</ele>
        <time>2009-07-19T17:44:22Z</time>
      </trkpt>
      <trkpt lat="50.738547" lon="6.362773">
        <ele>339.500000</ele>
        <time>2009-07-19T17:44:35Z</time>
      </trkpt>
      <trkpt lat="50.738543" lon="6.362813">
        <ele>339.500000</ele>
        <time>2009-07-19T17:44:37Z</time>
      </trkpt>
      <trkpt lat="50.738505" lon="6.363085">
        <ele>341.400000</ele>
        <time>2009-07-19T17:44:52Z</time>
      </trkpt>
      <trkpt lat="50.738492" lon="6.363297">
        <ele>341.900000</ele>
        <time>2009-07-19T17:45:03Z</time>
      </trkpt>
      <trkpt lat="50.738487" lon="6.363343">
        <ele>341.900000</ele>
        <time>2009-07-19T17:45:05Z</time>
      </trkpt>
      <trkpt lat="50.738495" lon="6.363507">
        <ele>342.400000</ele>
        <time>2009-07-19T17:45:14Z</time>
      </trkpt>
      <trkpt lat="50.738480" lon="6.363568">
        <ele>342.400000</ele>
        <time>2009-07-19T17:45:17Z</time>
      </trkpt>
      <trkpt lat="50.738495" lon="6.363687">
        <ele>342.400000</ele>
        <time>2009-07-19T17:45:23Z</time>
      </trkpt>
      <trkpt lat="50.738500" lon="6.363732">
        <ele>342.400000</ele>
        <time>2009-07-19T17:45:26Z</time>
      </trkpt>
      <trkpt lat="50.738475" lon="6.364087">
        <ele>342.800000</ele>
        <time>2009-07-19T17:45:44Z</time>
      </trkpt>
      <trkpt lat="50.738470" lon="6.364333">
        <ele>344.300000</ele>
        <time>2009-07-19T17:45:57Z</time>
      </trkpt>
      <trkpt lat="50.738507" lon="6.364590">
        <ele>345.300000</ele>
        <time>2009-07-19T17:46:10Z</time>
      </trkpt>
      <trkpt lat="50.738568" lon="6.364848">
        <ele>344.800000</ele>
        <time>2009-07-19T17:46:25Z</time>
      </trkpt>
      <trkpt lat="50.738625" lon="6.365033">
        <ele>345.300000</ele>
        <time>2009-07-19T17:46:35Z</time>
      </trkpt>
      <trkpt lat="50.738668" lon="6.365127">
        <ele>345.700000</ele>
        <time>2009-07-19T17:46:41Z</time>
      </trkpt>
      <trkpt lat="50.738677" lon="6.365178">
        <ele>345.700000</ele>
        <time>2009-07-19T17:46:44Z</time>
      </trkpt>
      <trkpt lat="50.738767" lon="6.365373">
        <ele>346.200000</ele>
        <time>2009-07-19T17:46:56Z</time>
      </trkpt>
      <trkpt lat="50.738822" lon="6.365560">
        <ele>346.200000</ele>
        <time>2009-07-19T17:47:07Z</time>
      </trkpt>
      <trkpt lat="50.738918" lon="6.365852">
        <ele>346.700000</ele>
        <time>2009-07-19T17:47:24Z</time>
      </trkpt>
      <trkpt lat="50.738933" lon="6.365897">
        <ele>346.700000</ele>
        <time>2009-07-19T17:47:27Z</time>
      </trkpt>
      <trkpt lat="50.738972" lon="6.366002">
        <ele>346.200000</ele>
        <time>2009-07-19T17:47:33Z</time>
      </trkpt>
      <trkpt lat="50.739022" lon="6.366193">
        <ele>347.200000</ele>
        <time>2009-07-19T17:47:44Z</time>
      </trkpt>
      <trkpt lat="50.739110" lon="6.366437">
        <ele>348.100000</ele>
        <time>2009-07-19T17:47:58Z</time>
      </trkpt>
      <trkpt lat="50.739152" lon="6.366545">
        <ele>348.600000</ele>
        <time>2009-07-19T17:48:05Z</time>
      </trkpt>
      <trkpt lat="50.739218" lon="6.366802">
        <ele>349.600000</ele>
        <time>2009-07-19T17:48:19Z</time>
      </trkpt>
      <trkpt lat="50.739312" lon="6.367020">
        <ele>350.500000</ele>
        <time>2009-07-19T17:48:33Z</time>
      </trkpt>
      <trkpt lat="50.739362" lon="6.367118">
        <ele>350.100000</ele>
        <time>2009-07-19T17:48:39Z</time>
      </trkpt>
      <trkpt lat="50.739460" lon="6.367418">
        <ele>352.000000</ele>
        <time>2009-07-19T17:48:57Z</time>
      </trkpt>
      <trkpt lat="50.739530" lon="6.367643">
        <ele>352.500000</ele>
        <time>2009-07-19T17:49:10Z</time>
      </trkpt>
      <trkpt lat="50.739588" lon="6.367765">
        <ele>353.400000</ele>
        <time>2009-07-19T17:49:18Z</time>
      </trkpt>
      <trkpt lat="50.739623" lon="6.367843">
        <ele>353.400000</ele>
        <time>2009-07-19T17:49:23Z</time>
      </trkpt>
      <trkpt lat="50.739697" lon="6.368058">
        <ele>353.400000</ele>
        <time>2009-07-19T17:49:35Z</time>
      </trkpt>
      <trkpt lat="50.739773" lon="6.368282">
        <ele>353.900000</ele>
        <time>2009-07-19T17:49:49Z</time>
      </trkpt>
      <trkpt lat="50.739878" lon="6.368355">
        <ele>354.400000</ele>
        <time>2009-07-19T17:49:58Z</time>
      </trkpt>
      <trkpt lat="50.740132" lon="6.368423">
        <ele>352.500000</ele>
        <time>2009-07-19T17:50:19Z</time>
      </trkpt>
      <trkpt lat="50.740362" lon="6.368477">
        <ele>349.600000</ele>
        <time>2009-07-19T17:50:38Z</time>
      </trkpt>
      <trkpt lat="50.740417" lon="6.368485">
        <ele>349.600000</ele>
        <time>2009-07-19T17:50:42Z</time>
      </trkpt>
      <trkpt lat="50.740547" lon="6.368470">
        <ele>349.100000</ele>
        <time>2009-07-19T17:50:53Z</time>
      </trkpt>
      <trkpt lat="50.740730" lon="6.368490">
        <ele>347.200000</ele>
        <time>2009-07-19T17:51:08Z</time>
      </trkpt>
      <trkpt lat="50.740803" lon="6.368508">
        <ele>347.200000</ele>
        <time>2009-07-19T17:51:14Z</time>
      </trkpt>
      <trkpt lat="50.741033" lon="6.368522">
        <ele>345.700000</ele>
        <time>2009-07-19T17:51:33Z</time>
      </trkpt>
      <trkpt lat="50.741222" lon="6.368537">
        <ele>344.800000</ele>
        <time>2009-07-19T17:51:48Z</time>
      </trkpt>
      <trkpt lat="50.741255" lon="6.368533">
        <ele>343.800000</ele>
        <time>2009-07-19T17:51:51Z</time>
      </trkpt>
      <trkpt lat="50.741415" lon="6.368507">
        <ele>343.300000</ele>
        <time>2009-07-19T17:52:04Z</time>
      </trkpt>
      <trkpt lat="50.741565" lon="6.368482">
        <ele>341.900000</ele>
        <time>2009-07-19T17:52:17Z</time>
      </trkpt>
      <trkpt lat="50.741743" lon="6.368490">
        <ele>340.400000</ele>
        <time>2009-07-19T17:52:31Z</time>
      </trkpt>
      <trkpt lat="50.741877" lon="6.368487">
        <ele>339.000000</ele>
        <time>2009-07-19T17:52:42Z</time>
      </trkpt>
      <trkpt lat="50.741958" lon="6.368470">
        <ele>338.000000</ele>
        <time>2009-07-19T17:52:49Z</time>
      </trkpt>
      <trkpt lat="50.742038" lon="6.368475">
        <ele>337.100000</ele>
        <time>2009-07-19T17:52:56Z</time>
      </trkpt>
      <trkpt lat="50.742200" lon="6.368460">
        <ele>336.600000</ele>
        <time>2009-07-19T17:53:09Z</time>
      </trkpt>
      <trkpt lat="50.742390" lon="6.368450">
        <ele>335.600000</ele>
        <time>2009-07-19T17:53:24Z</time>
      </trkpt>
      <trkpt lat="50.742572" lon="6.368440">
        <ele>335.200000</ele>
        <time>2009-07-19T17:53:39Z</time>
      </trkpt>
      <trkpt lat="50.742723" lon="6.368428">
        <ele>334.200000</ele>
        <time>2009-07-19T17:53:52Z</time>
      </trkpt>
      <trkpt lat="50.742885" lon="6.368392">
        <ele>333.700000</ele>
        <time>2009-07-19T17:54:05Z</time>
      </trkpt>
      <trkpt lat="50.743028" lon="6.368412">
        <ele>332.800000</ele>
        <time>2009-07-19T17:54:17Z</time>
      </trkpt>
      <trkpt lat="50.743150" lon="6.368417">
        <ele>332.300000</ele>
        <time>2009-07-19T17:54:27Z</time>
      </trkpt>
      <trkpt lat="50.743308" lon="6.368428">
        <ele>331.800000</ele>
        <time>2009-07-19T17:54:40Z</time>
      </trkpt>
      <trkpt lat="50.743487" lon="6.368440">
        <ele>330.800000</ele>
        <time>2009-07-19T17:54:54Z</time>
      </trkpt>
      <trkpt lat="50.743588" lon="6.368462">
        <ele>329.900000</ele>
        <time>2009-07-19T17:55:03Z</time>
      </trkpt>
      <trkpt lat="50.743643" lon="6.368455">
        <ele>329.400000</ele>
        <time>2009-07-19T17:55:07Z</time>
      </trkpt>
      <trkpt lat="50.743417" lon="6.368430">
        <ele>328.900000</ele>
        <time>2009-07-19T17:55:26Z</time>
      </trkpt>
      <trkpt lat="50.743417" lon="6.368430">
        <ele>325.100000</ele>
        <time>2009-07-19T17:55:26Z</time>
      </trkpt>
      <trkpt lat="50.743958" lon="6.367922">
        <ele>325.500000</ele>
        <time>2009-07-19T17:56:17Z</time>
      </trkpt>
      <trkpt lat="50.744150" lon="6.367667">
        <ele>325.100000</ele>
        <time>2009-07-19T17:56:38Z</time>
      </trkpt>
      <trkpt lat="50.744390" lon="6.367262">
        <ele>325.100000</ele>
        <time>2009-07-19T17:57:07Z</time>
      </trkpt>
      <trkpt lat="50.744615" lon="6.367003">
        <ele>325.100000</ele>
        <time>2009-07-19T17:57:29Z</time>
      </trkpt>
      <trkpt lat="50.744882" lon="6.366750">
        <ele>323.100000</ele>
        <time>2009-07-19T17:57:55Z</time>
      </trkpt>
      <trkpt lat="50.745033" lon="6.366415">
        <ele>322.200000</ele>
        <time>2009-07-19T17:58:16Z</time>
      </trkpt>
      <trkpt lat="50.745063" lon="6.366297">
        <ele>321.200000</ele>
        <time>2009-07-19T17:58:23Z</time>
      </trkpt>
      <trkpt lat="50.745093" lon="6.366147">
        <ele>320.700000</ele>
        <time>2009-07-19T17:58:31Z</time>
      </trkpt>
      <trkpt lat="50.745190" lon="6.365857">
        <ele>319.300000</ele>
        <time>2009-07-19T17:58:48Z</time>
      </trkpt>
      <trkpt lat="50.745330" lon="6.365607">
        <ele>318.300000</ele>
        <time>2009-07-19T17:59:05Z</time>
      </trkpt>
      <trkpt lat="50.745480" lon="6.365387">
        <ele>317.400000</ele>
        <time>2009-07-19T17:59:22Z</time>
      </trkpt>
      <trkpt lat="50.745642" lon="6.365142">
        <ele>316.900000</ele>
        <time>2009-07-19T17:59:40Z</time>
      </trkpt>
      <trkpt lat="50.745805" lon="6.364965">
        <ele>315.000000</ele>
        <time>2009-07-19T17:59:56Z</time>
      </trkpt>
      <trkpt lat="50.745868" lon="6.364780">
        <ele>315.900000</ele>
        <time>2009-07-19T18:00:07Z</time>
      </trkpt>
      <trkpt lat="50.745875" lon="6.364728">
        <ele>315.900000</ele>
        <time>2009-07-19T18:00:10Z</time>
      </trkpt>
      <trkpt lat="50.746022" lon="6.364642">
        <ele>316.400000</ele>
        <time>2009-07-19T18:00:23Z</time>
      </trkpt>
      <trkpt lat="50.746177" lon="6.364630">
        <ele>316.400000</ele>
        <time>2009-07-19T18:00:35Z</time>
      </trkpt>
      <trkpt lat="50.746332" lon="6.364615">
        <ele>320.300000</ele>
        <time>2009-07-19T18:00:48Z</time>
      </trkpt>
      <trkpt lat="50.746345" lon="6.364615">
        <ele>320.300000</ele>
        <time>2009-07-19T18:00:49Z</time>
      </trkpt>
      <trkpt lat="50.746382" lon="6.364607">
        <ele>318.800000</ele>
        <time>2009-07-19T18:00:52Z</time>
      </trkpt>
      <trkpt lat="50.746487" lon="6.364570">
        <ele>318.800000</ele>
        <time>2009-07-19T18:01:01Z</time>
      </trkpt>
      <trkpt lat="50.746598" lon="6.364505">
        <ele>318.300000</ele>
        <time>2009-07-19T18:01:11Z</time>
      </trkpt>
      <trkpt lat="50.746752" lon="6.364372">
        <ele>317.900000</ele>
        <time>2009-07-19T18:01:25Z</time>
      </trkpt>
      <trkpt lat="50.746933" lon="6.364257">
        <ele>317.400000</ele>
        <time>2009-07-19T18:01:41Z</time>
      </trkpt>
      <trkpt lat="50.747182" lon="6.364258">
        <ele>316.400000</ele>
        <time>2009-07-19T18:02:01Z</time>
      </trkpt>
      <trkpt lat="50.747393" lon="6.364272">
        <ele>315.400000</ele>
        <time>2009-07-19T18:02:19Z</time>
      </trkpt>
      <trkpt lat="50.747585" lon="6.364263">
        <ele>314.500000</ele>
        <time>2009-07-19T18:02:34Z</time>
      </trkpt>
      <trkpt lat="50.747860" lon="6.364220">
        <ele>315.000000</ele>
        <time>2009-07-19T18:02:57Z</time>
      </trkpt>
      <trkpt lat="50.748072" lon="6.364142">
        <ele>314.000000</ele>
        <time>2009-07-19T18:03:15Z</time>
      </trkpt>
      <trkpt lat="50.748302" lon="6.364027">
        <ele>313.500000</ele>
        <time>2009-07-19T18:03:35Z</time>
      </trkpt>
      <trkpt lat="50.748453" lon="6.363950">
        <ele>313.000000</ele>
        <time>2009-07-19T18:03:48Z</time>
      </trkpt>
      <trkpt lat="50.748647" lon="6.363882">
        <ele>312.600000</ele>
        <time>2009-07-19T18:04:04Z</time>
      </trkpt>
      <trkpt lat="50.748885" lon="6.363798">
        <ele>309.700000</ele>
        <time>2009-07-19T18:04:24Z</time>
      </trkpt>
      <trkpt lat="50.749078" lon="6.363773">
        <ele>307.800000</ele>
        <time>2009-07-19T18:04:40Z</time>
      </trkpt>
      <trkpt lat="50.749202" lon="6.363743">
        <ele>307.800000</ele>
        <time>2009-07-19T18:04:50Z</time>
      </trkpt>
      <trkpt lat="50.749367" lon="6.363673">
        <ele>304.900000</ele>
        <time>2009-07-19T18:05:04Z</time>
      </trkpt>
      <trkpt lat="50.749575" lon="6.363632">
        <ele>304.400000</ele>
        <time>2009-07-19T18:05:21Z</time>
      </trkpt>
      <trkpt lat="50.749720" lon="6.363642">
        <ele>303.900000</ele>
        <time>2009-07-19T18:05:33Z</time>
      </trkpt>
      <trkpt lat="50.749865" lon="6.363668">
        <ele>303.400000</ele>
        <time>2009-07-19T18:05:45Z</time>
      </trkpt>
      <trkpt lat="50.750017" lon="6.363718">
        <ele>302.500000</ele>
        <time>2009-07-19T18:05:57Z</time>
      </trkpt>
      <trkpt lat="50.750177" lon="6.363788">
        <ele>310.200000</ele>
        <time>2009-07-19T18:06:11Z</time>
      </trkpt>
      <trkpt lat="50.750312" lon="6.364213">
        <ele>309.200000</ele>
        <time>2009-07-19T18:06:36Z</time>
      </trkpt>
      <trkpt lat="50.750427" lon="6.364532">
        <ele>308.200000</ele>
        <time>2009-07-19T18:06:55Z</time>
      </trkpt>
      <trkpt lat="50.750503" lon="6.364763">
        <ele>307.800000</ele>
        <time>2009-07-19T18:07:08Z</time>
      </trkpt>
      <trkpt lat="50.750623" lon="6.365135">
        <ele>307.300000</ele>
        <time>2009-07-19T18:07:30Z</time>
      </trkpt>
      <trkpt lat="50.750652" lon="6.365225">
        <ele>307.300000</ele>
        <time>2009-07-19T18:07:35Z</time>
      </trkpt>
      <trkpt lat="50.750740" lon="6.365560">
        <ele>304.400000</ele>
        <time>2009-07-19T18:07:54Z</time>
      </trkpt>
      <trkpt lat="50.750828" lon="6.365862">
        <ele>302.500000</ele>
        <time>2009-07-19T18:08:11Z</time>
      </trkpt>
      <trkpt lat="50.750912" lon="6.366135">
        <ele>299.600000</ele>
        <time>2009-07-19T18:08:27Z</time>
      </trkpt>
      <trkpt lat="50.751010" lon="6.366353">
        <ele>297.700000</ele>
        <time>2009-07-19T18:08:41Z</time>
      </trkpt>
      <trkpt lat="50.751162" lon="6.366575">
        <ele>297.200000</ele>
        <time>2009-07-19T18:08:57Z</time>
      </trkpt>
      <trkpt lat="50.751303" lon="6.366752">
        <ele>296.200000</ele>
        <time>2009-07-19T18:09:12Z</time>
      </trkpt>
      <trkpt lat="50.751447" lon="6.366965">
        <ele>294.800000</ele>
        <time>2009-07-19T18:09:28Z</time>
      </trkpt>
      <trkpt lat="50.751582" lon="6.367128">
        <ele>292.900000</ele>
        <time>2009-07-19T18:09:42Z</time>
      </trkpt>
      <trkpt lat="50.751697" lon="6.367247">
        <ele>291.400000</ele>
        <time>2009-07-19T18:09:53Z</time>
      </trkpt>
      <trkpt lat="50.751857" lon="6.367347">
        <ele>289.500000</ele>
        <time>2009-07-19T18:10:07Z</time>
      </trkpt>
      <trkpt lat="50.751998" lon="6.367367">
        <ele>287.600000</ele>
        <time>2009-07-19T18:10:19Z</time>
      </trkpt>
      <trkpt lat="50.752180" lon="6.367415">
        <ele>285.200000</ele>
        <time>2009-07-19T18:10:34Z</time>
      </trkpt>
      <trkpt lat="50.752370" lon="6.367438">
        <ele>284.200000</ele>
        <time>2009-07-19T18:10:50Z</time>
      </trkpt>
      <trkpt lat="50.752552" lon="6.367475">
        <ele>281.300000</ele>
        <time>2009-07-19T18:11:05Z</time>
      </trkpt>
      <trkpt lat="50.752650" lon="6.367503">
        <ele>279.400000</ele>
        <time>2009-07-19T18:11:13Z</time>
      </trkpt>
      <trkpt lat="50.752855" lon="6.367657">
        <ele>277.000000</ele>
        <time>2009-07-19T18:11:31Z</time>
      </trkpt>
      <trkpt lat="50.753028" lon="6.367552">
        <ele>276.000000</ele>
        <time>2009-07-19T18:11:47Z</time>
      </trkpt>
      <trkpt lat="50.753157" lon="6.367445">
        <ele>275.600000</ele>
        <time>2009-07-19T18:11:58Z</time>
      </trkpt>
      <trkpt lat="50.753265" lon="6.367375">
        <ele>274.600000</ele>
        <time>2009-07-19T18:12:08Z</time>
      </trkpt>
      <trkpt lat="50.753463" lon="6.367223">
        <ele>274.600000</ele>
        <time>2009-07-19T18:12:26Z</time>
      </trkpt>
      <trkpt lat="50.753620" lon="6.367033">
        <ele>274.600000</ele>
        <time>2009-07-19T18:12:42Z</time>
      </trkpt>
      <trkpt lat="50.753757" lon="6.366790">
        <ele>273.200000</ele>
        <time>2009-07-19T18:12:59Z</time>
      </trkpt>
      <trkpt lat="50.753877" lon="6.366542">
        <ele>272.200000</ele>
        <time>2009-07-19T18:13:15Z</time>
      </trkpt>
      <trkpt lat="50.753917" lon="6.366447">
        <ele>271.700000</ele>
        <time>2009-07-19T18:13:21Z</time>
      </trkpt>
      <trkpt lat="50.753995" lon="6.366408">
        <ele>272.700000</ele>
        <time>2009-07-19T18:13:28Z</time>
      </trkpt>
      <trkpt lat="50.753998" lon="6.366410">
        <ele>272.200000</ele>
        <time>2009-07-19T18:13:28Z</time>
      </trkpt>
      <trkpt lat="50.754003" lon="6.366410">
        <ele>268.800000</ele>
        <time>2009-07-19T18:13:29Z</time>
      </trkpt>
      <trkpt lat="50.754007" lon="6.366410">
        <ele>273.600000</ele>
        <time>2009-07-19T18:13:29Z</time>
      </trkpt>
      <trkpt lat="50.754037" lon="6.366413">
        <ele>270.300000</ele>
        <time>2009-07-19T18:13:31Z</time>
      </trkpt>
      <trkpt lat="50.754038" lon="6.366413">
        <ele>273.600000</ele>
        <time>2009-07-19T18:13:31Z</time>
      </trkpt>
      <trkpt lat="50.754040" lon="6.366418">
        <ele>271.200000</ele>
        <time>2009-07-19T18:13:32Z</time>
      </trkpt>
      <trkpt lat="50.754120" lon="6.366438">
        <ele>272.200000</ele>
        <time>2009-07-19T18:13:38Z</time>
      </trkpt>
      <trkpt lat="50.754102" lon="6.366497">
        <ele>272.200000</ele>
        <time>2009-07-19T18:13:42Z</time>
      </trkpt>
      <trkpt lat="50.754018" lon="6.366727">
        <ele>270.700000</ele>
        <time>2009-07-19T18:13:55Z</time>
      </trkpt>
      <trkpt lat="50.754022" lon="6.366858">
        <ele>271.200000</ele>
        <time>2009-07-19T18:14:02Z</time>
      </trkpt>
      <trkpt lat="50.753968" lon="6.367143">
        <ele>270.700000</ele>
        <time>2009-07-19T18:14:18Z</time>
      </trkpt>
      <trkpt lat="50.753963" lon="6.367210">
        <ele>270.700000</ele>
        <time>2009-07-19T18:14:21Z</time>
      </trkpt>
      <trkpt lat="50.753990" lon="6.367572">
        <ele>271.200000</ele>
        <time>2009-07-19T18:14:40Z</time>
      </trkpt>
      <trkpt lat="50.753965" lon="6.367598">
        <ele>271.200000</ele>
        <time>2009-07-19T18:14:42Z</time>
      </trkpt>
      <trkpt lat="50.753807" lon="6.367608">
        <ele>272.200000</ele>
        <time>2009-07-19T18:14:55Z</time>
      </trkpt>
      <trkpt lat="50.753620" lon="6.367683">
        <ele>273.200000</ele>
        <time>2009-07-19T18:15:11Z</time>
      </trkpt>
      <trkpt lat="50.753447" lon="6.367782">
        <ele>274.100000</ele>
        <time>2009-07-19T18:15:26Z</time>
      </trkpt>
      <trkpt lat="50.753297" lon="6.367915">
        <ele>274.600000</ele>
        <time>2009-07-19T18:15:40Z</time>
      </trkpt>
      <trkpt lat="50.753247" lon="6.367965">
        <ele>275.100000</ele>
        <time>2009-07-19T18:15:45Z</time>
      </trkpt>
      <trkpt lat="50.753100" lon="6.368110">
        <ele>276.000000</ele>
        <time>2009-07-19T18:15:59Z</time>
      </trkpt>
      <trkpt lat="50.752967" lon="6.368335">
        <ele>278.400000</ele>
        <time>2009-07-19T18:16:15Z</time>
      </trkpt>
      <trkpt lat="50.752828" lon="6.368567">
        <ele>280.400000</ele>
        <time>2009-07-19T18:16:32Z</time>
      </trkpt>
      <trkpt lat="50.752772" lon="6.368678">
        <ele>280.800000</ele>
        <time>2009-07-19T18:16:39Z</time>
      </trkpt>
      <trkpt lat="50.752658" lon="6.368907">
        <ele>280.800000</ele>
        <time>2009-07-19T18:16:54Z</time>
      </trkpt>
      <trkpt lat="50.752527" lon="6.369073">
        <ele>282.300000</ele>
        <time>2009-07-19T18:17:08Z</time>
      </trkpt>
      <trkpt lat="50.752385" lon="6.369130">
        <ele>282.800000</ele>
        <time>2009-07-19T18:17:20Z</time>
      </trkpt>
      <trkpt lat="50.752287" lon="6.369163">
        <ele>283.200000</ele>
        <time>2009-07-19T18:17:28Z</time>
      </trkpt>
      <trkpt lat="50.752153" lon="6.369305">
        <ele>284.200000</ele>
        <time>2009-07-19T18:17:41Z</time>
      </trkpt>
      <trkpt lat="50.752060" lon="6.369408">
        <ele>284.700000</ele>
        <time>2009-07-19T18:17:50Z</time>
      </trkpt>
      <trkpt lat="50.751995" lon="6.369427">
        <ele>284.700000</ele>
        <time>2009-07-19T18:17:56Z</time>
      </trkpt>
      <trkpt lat="50.751927" lon="6.369460">
        <ele>284.700000</ele>
        <time>2009-07-19T18:18:02Z</time>
      </trkpt>
      <trkpt lat="50.751733" lon="6.369513">
        <ele>284.700000</ele>
        <time>2009-07-19T18:18:18Z</time>
      </trkpt>
      <trkpt lat="50.751707" lon="6.369522">
        <ele>284.700000</ele>
        <time>2009-07-19T18:18:20Z</time>
      </trkpt>
      <trkpt lat="50.751687" lon="6.369543">
        <ele>285.600000</ele>
        <time>2009-07-19T18:18:22Z</time>
      </trkpt>
      <trkpt lat="50.751630" lon="6.369570">
        <ele>286.100000</ele>
        <time>2009-07-19T18:18:27Z</time>
      </trkpt>
      <trkpt lat="50.751508" lon="6.369592">
        <ele>286.100000</ele>
        <time>2009-07-19T18:18:37Z</time>
      </trkpt>
      <trkpt lat="50.751343" lon="6.369613">
        <ele>286.600000</ele>
        <time>2009-07-19T18:18:50Z</time>
      </trkpt>
      <trkpt lat="50.751250" lon="6.369600">
        <ele>287.100000</ele>
        <time>2009-07-19T18:18:58Z</time>
      </trkpt>
      <trkpt lat="50.751078" lon="6.369572">
        <ele>288.100000</ele>
        <time>2009-07-19T18:19:12Z</time>
      </trkpt>
      <trkpt lat="50.750942" lon="6.369542">
        <ele>288.500000</ele>
        <time>2009-07-19T18:19:23Z</time>
      </trkpt>
      <trkpt lat="50.750777" lon="6.369477">
        <ele>290.000000</ele>
        <time>2009-07-19T18:19:37Z</time>
      </trkpt>
      <trkpt lat="50.750613" lon="6.369483">
        <ele>290.500000</ele>
        <time>2009-07-19T18:19:51Z</time>
      </trkpt>
      <trkpt lat="50.750433" lon="6.369545">
        <ele>291.900000</ele>
        <time>2009-07-19T18:20:06Z</time>
      </trkpt>
      <trkpt lat="50.750372" lon="6.369570">
        <ele>291.900000</ele>
        <time>2009-07-19T18:20:11Z</time>
      </trkpt>
      <trkpt lat="50.750162" lon="6.369585">
        <ele>292.400000</ele>
        <time>2009-07-19T18:20:28Z</time>
      </trkpt>
      <trkpt lat="50.750028" lon="6.369595">
        <ele>292.900000</ele>
        <time>2009-07-19T18:20:39Z</time>
      </trkpt>
      <trkpt lat="50.749925" lon="6.369615">
        <ele>293.300000</ele>
        <time>2009-07-19T18:20:48Z</time>
      </trkpt>
      <trkpt lat="50.749762" lon="6.369613">
        <ele>293.800000</ele>
        <time>2009-07-19T18:21:01Z</time>
      </trkpt>
      <trkpt lat="50.749687" lon="6.369642">
        <ele>294.300000</ele>
        <time>2009-07-19T18:21:07Z</time>
      </trkpt>
      <trkpt lat="50.749503" lon="6.369783">
        <ele>294.800000</ele>
        <time>2009-07-19T18:21:24Z</time>
      </trkpt>
      <trkpt lat="50.749378" lon="6.370033">
        <ele>295.300000</ele>
        <time>2009-07-19T18:21:40Z</time>
      </trkpt>
      <trkpt lat="50.749213" lon="6.370230">
        <ele>295.300000</ele>
        <time>2009-07-19T18:21:57Z</time>
      </trkpt>
      <trkpt lat="50.749052" lon="6.370218">
        <ele>294.800000</ele>
        <time>2009-07-19T18:22:11Z</time>
      </trkpt>
      <trkpt lat="50.748962" lon="6.369967">
        <ele>295.300000</ele>
        <time>2009-07-19T18:22:26Z</time>
      </trkpt>
      <trkpt lat="50.748943" lon="6.369930">
        <ele>295.700000</ele>
        <time>2009-07-19T18:22:28Z</time>
      </trkpt>
      <trkpt lat="50.748853" lon="6.369768">
        <ele>295.700000</ele>
        <time>2009-07-19T18:22:39Z</time>
      </trkpt>
      <trkpt lat="50.748810" lon="6.369730">
        <ele>295.700000</ele>
        <time>2009-07-19T18:22:43Z</time>
      </trkpt>
      <trkpt lat="50.748710" lon="6.369628">
        <ele>296.700000</ele>
        <time>2009-07-19T18:22:53Z</time>
      </trkpt>
      <trkpt lat="50.748495" lon="6.369507">
        <ele>297.200000</ele>
        <time>2009-07-19T18:23:11Z</time>
      </trkpt>
      <trkpt lat="50.748298" lon="6.369538">
        <ele>298.600000</ele>
        <time>2009-07-19T18:23:28Z</time>
      </trkpt>
      <trkpt lat="50.748160" lon="6.369537">
        <ele>299.600000</ele>
        <time>2009-07-19T18:23:39Z</time>
      </trkpt>
      <trkpt lat="50.748017" lon="6.369490">
        <ele>300.100000</ele>
        <time>2009-07-19T18:23:51Z</time>
      </trkpt>
      <trkpt lat="50.747842" lon="6.369365">
        <ele>300.500000</ele>
        <time>2009-07-19T18:24:07Z</time>
      </trkpt>
      <trkpt lat="50.747653" lon="6.369328">
        <ele>301.500000</ele>
        <time>2009-07-19T18:24:22Z</time>
      </trkpt>
      <trkpt lat="50.747485" lon="6.369363">
        <ele>302.000000</ele>
        <time>2009-07-19T18:24:36Z</time>
      </trkpt>
      <trkpt lat="50.747305" lon="6.369407">
        <ele>302.500000</ele>
        <time>2009-07-19T18:24:51Z</time>
      </trkpt>
      <trkpt lat="50.747212" lon="6.369470">
        <ele>302.500000</ele>
        <time>2009-07-19T18:24:59Z</time>
      </trkpt>
      <trkpt lat="50.747155" lon="6.369507">
        <ele>303.400000</ele>
        <time>2009-07-19T18:25:04Z</time>
      </trkpt>
      <trkpt lat="50.747080" lon="6.369590">
        <ele>303.000000</ele>
        <time>2009-07-19T18:25:12Z</time>
      </trkpt>
      <trkpt lat="50.746945" lon="6.369833">
        <ele>304.400000</ele>
        <time>2009-07-19T18:25:29Z</time>
      </trkpt>
      <trkpt lat="50.746923" lon="6.369923">
        <ele>304.900000</ele>
        <time>2009-07-19T18:25:34Z</time>
      </trkpt>
      <trkpt lat="50.746920" lon="6.370018">
        <ele>305.400000</ele>
        <time>2009-07-19T18:25:38Z</time>
      </trkpt>
      <trkpt lat="50.746943" lon="6.370357">
        <ele>306.300000</ele>
        <time>2009-07-19T18:25:56Z</time>
      </trkpt>
      <trkpt lat="50.746948" lon="6.370595">
        <ele>306.800000</ele>
        <time>2009-07-19T18:26:08Z</time>
      </trkpt>
      <trkpt lat="50.746948" lon="6.370800">
        <ele>307.300000</ele>
        <time>2009-07-19T18:26:19Z</time>
      </trkpt>
      <trkpt lat="50.746963" lon="6.370888">
        <ele>307.800000</ele>
        <time>2009-07-19T18:26:24Z</time>
      </trkpt>
      <trkpt lat="50.746987" lon="6.371237">
        <ele>308.200000</ele>
        <time>2009-07-19T18:26:42Z</time>
      </trkpt>
      <trkpt lat="50.747013" lon="6.371583">
        <ele>309.200000</ele>
        <time>2009-07-19T18:27:00Z</time>
      </trkpt>
      <trkpt lat="50.746998" lon="6.371808">
        <ele>309.700000</ele>
        <time>2009-07-19T18:27:12Z</time>
      </trkpt>
      <trkpt lat="50.746992" lon="6.372072">
        <ele>310.200000</ele>
        <time>2009-07-19T18:27:25Z</time>
      </trkpt>
      <trkpt lat="50.746983" lon="6.372193">
        <ele>310.600000</ele>
        <time>2009-07-19T18:27:32Z</time>
      </trkpt>
      <trkpt lat="50.746927" lon="6.372473">
        <ele>312.600000</ele>
        <time>2009-07-19T18:27:47Z</time>
      </trkpt>
      <trkpt lat="50.746805" lon="6.372757">
        <ele>313.000000</ele>
        <time>2009-07-19T18:28:04Z</time>
      </trkpt>
      <trkpt lat="50.746700" lon="6.373012">
        <ele>313.500000</ele>
        <time>2009-07-19T18:28:20Z</time>
      </trkpt>
      <trkpt lat="50.746645" lon="6.373313">
        <ele>314.500000</ele>
        <time>2009-07-19T18:28:36Z</time>
      </trkpt>
      <trkpt lat="50.746588" lon="6.373560">
        <ele>316.400000</ele>
        <time>2009-07-19T18:28:50Z</time>
      </trkpt>
      <trkpt lat="50.746552" lon="6.373803">
        <ele>316.900000</ele>
        <time>2009-07-19T18:29:03Z</time>
      </trkpt>
      <trkpt lat="50.746532" lon="6.373992">
        <ele>317.400000</ele>
        <time>2009-07-19T18:29:13Z</time>
      </trkpt>
      <trkpt lat="50.746487" lon="6.374290">
        <ele>318.300000</ele>
        <time>2009-07-19T18:29:29Z</time>
      </trkpt>
      <trkpt lat="50.746485" lon="6.374315">
        <ele>318.300000</ele>
        <time>2009-07-19T18:29:30Z</time>
      </trkpt>
      <trkpt lat="50.746463" lon="6.374595">
        <ele>318.300000</ele>
        <time>2009-07-19T18:29:45Z</time>
      </trkpt>
      <trkpt lat="50.746412" lon="6.374850">
        <ele>318.800000</ele>
        <time>2009-07-19T18:29:59Z</time>
      </trkpt>
      <trkpt lat="50.746278" lon="6.375055">
        <ele>319.800000</ele>
        <time>2009-07-19T18:30:14Z</time>
      </trkpt>
      <trkpt lat="50.746113" lon="6.375232">
        <ele>319.800000</ele>
        <time>2009-07-19T18:30:30Z</time>
      </trkpt>
      <trkpt lat="50.745958" lon="6.375305">
        <ele>320.300000</ele>
        <time>2009-07-19T18:30:43Z</time>
      </trkpt>
      <trkpt lat="50.745858" lon="6.375255">
        <ele>320.300000</ele>
        <time>2009-07-19T18:30:52Z</time>
      </trkpt>
      <trkpt lat="50.745850" lon="6.375108">
        <ele>320.700000</ele>
        <time>2009-07-19T18:30:59Z</time>
      </trkpt>
      <trkpt lat="50.745850" lon="6.375062">
        <ele>320.700000</ele>
        <time>2009-07-19T18:31:02Z</time>
      </trkpt>
      <trkpt lat="50.745833" lon="6.374802">
        <ele>320.700000</ele>
        <time>2009-07-19T18:31:15Z</time>
      </trkpt>
      <trkpt lat="50.745772" lon="6.374593">
        <ele>320.700000</ele>
        <time>2009-07-19T18:31:27Z</time>
      </trkpt>
      <trkpt lat="50.745672" lon="6.374403">
        <ele>321.200000</ele>
        <time>2009-07-19T18:31:40Z</time>
      </trkpt>
      <trkpt lat="50.745555" lon="6.374152">
        <ele>321.200000</ele>
        <time>2009-07-19T18:31:56Z</time>
      </trkpt>
      <trkpt lat="50.745447" lon="6.374028">
        <ele>322.200000</ele>
        <time>2009-07-19T18:32:07Z</time>
      </trkpt>
      <trkpt lat="50.745403" lon="6.374012">
        <ele>322.200000</ele>
        <time>2009-07-19T18:32:11Z</time>
      </trkpt>
      <trkpt lat="50.745322" lon="6.373980">
        <ele>322.200000</ele>
        <time>2009-07-19T18:32:18Z</time>
      </trkpt>
      <trkpt lat="50.745130" lon="6.373967">
        <ele>322.700000</ele>
        <time>2009-07-19T18:32:33Z</time>
      </trkpt>
      <trkpt lat="50.744987" lon="6.374018">
        <ele>322.700000</ele>
        <time>2009-07-19T18:32:45Z</time>
      </trkpt>
      <trkpt lat="50.744822" lon="6.374208">
        <ele>323.100000</ele>
        <time>2009-07-19T18:33:02Z</time>
      </trkpt>
      <trkpt lat="50.744672" lon="6.374422">
        <ele>324.100000</ele>
        <time>2009-07-19T18:33:19Z</time>
      </trkpt>
      <trkpt lat="50.744523" lon="6.374632">
        <ele>324.600000</ele>
        <time>2009-07-19T18:33:35Z</time>
      </trkpt>
      <trkpt lat="50.744395" lon="6.374833">
        <ele>325.500000</ele>
        <time>2009-07-19T18:33:50Z</time>
      </trkpt>
      <trkpt lat="50.744250" lon="6.375040">
        <ele>326.500000</ele>
        <time>2009-07-19T18:34:06Z</time>
      </trkpt>
      <trkpt lat="50.744095" lon="6.375212">
        <ele>327.000000</ele>
        <time>2009-07-19T18:34:21Z</time>
      </trkpt>
      <trkpt lat="50.743917" lon="6.375387">
        <ele>327.900000</ele>
        <time>2009-07-19T18:34:38Z</time>
      </trkpt>
      <trkpt lat="50.743743" lon="6.375565">
        <ele>329.400000</ele>
        <time>2009-07-19T18:34:55Z</time>
      </trkpt>
      <trkpt lat="50.743615" lon="6.375685">
        <ele>329.900000</ele>
        <time>2009-07-19T18:35:07Z</time>
      </trkpt>
      <trkpt lat="50.743560" lon="6.375727">
        <ele>329.900000</ele>
        <time>2009-07-19T18:35:12Z</time>
      </trkpt>
      <trkpt lat="50.743393" lon="6.375883">
        <ele>330.800000</ele>
        <time>2009-07-19T18:35:28Z</time>
      </trkpt>
      <trkpt lat="50.743212" lon="6.376052">
        <ele>331.800000</ele>
        <time>2009-07-19T18:35:45Z</time>
      </trkpt>
      <trkpt lat="50.743118" lon="6.376265">
        <ele>334.200000</ele>
        <time>2009-07-19T18:35:59Z</time>
      </trkpt>
      <trkpt lat="50.743033" lon="6.376507">
        <ele>336.100000</ele>
        <time>2009-07-19T18:36:13Z</time>
      </trkpt>
      <trkpt lat="50.742978" lon="6.376652">
        <ele>337.600000</ele>
        <time>2009-07-19T18:36:22Z</time>
      </trkpt>
      <trkpt lat="50.742917" lon="6.376823">
        <ele>339.500000</ele>
        <time>2009-07-19T18:36:32Z</time>
      </trkpt>
      <trkpt lat="50.742833" lon="6.377088">
        <ele>341.400000</ele>
        <time>2009-07-19T18:36:47Z</time>
      </trkpt>
      <trkpt lat="50.742798" lon="6.377372">
        <ele>342.400000</ele>
        <time>2009-07-19T18:37:02Z</time>
      </trkpt>
      <trkpt lat="50.742620" lon="6.377448">
        <ele>341.400000</ele>
        <time>2009-07-19T18:37:18Z</time>
      </trkpt>
      <trkpt lat="50.742465" lon="6.377505">
        <ele>341.900000</ele>
        <time>2009-07-19T18:37:31Z</time>
      </trkpt>
      <trkpt lat="50.742428" lon="6.377530">
        <ele>341.900000</ele>
        <time>2009-07-19T18:37:34Z</time>
      </trkpt>
      <trkpt lat="50.742350" lon="6.377707">
        <ele>344.300000</ele>
        <time>2009-07-19T18:37:45Z</time>
      </trkpt>
      <trkpt lat="50.742355" lon="6.377883">
        <ele>345.700000</ele>
        <time>2009-07-19T18:37:54Z</time>
      </trkpt>
      <trkpt lat="50.742335" lon="6.378033">
        <ele>346.200000</ele>
        <time>2009-07-19T18:38:02Z</time>
      </trkpt>
      <trkpt lat="50.742330" lon="6.378140">
        <ele>346.200000</ele>
        <time>2009-07-19T18:38:08Z</time>
      </trkpt>
      <trkpt lat="50.742308" lon="6.378432">
        <ele>347.200000</ele>
        <time>2009-07-19T18:38:23Z</time>
      </trkpt>
      <trkpt lat="50.742288" lon="6.378732">
        <ele>348.100000</ele>
        <time>2009-07-19T18:38:38Z</time>
      </trkpt>
      <trkpt lat="50.742285" lon="6.378830">
        <ele>348.100000</ele>
        <time>2009-07-19T18:38:43Z</time>
      </trkpt>
      <trkpt lat="50.742273" lon="6.378918">
        <ele>348.100000</ele>
        <time>2009-07-19T18:38:48Z</time>
      </trkpt>
      <trkpt lat="50.742142" lon="6.379202">
        <ele>349.600000</ele>
        <time>2009-07-19T18:39:06Z</time>
      </trkpt>
      <trkpt lat="50.741975" lon="6.379303">
        <ele>351.500000</ele>
        <time>2009-07-19T18:39:21Z</time>
      </trkpt>
      <trkpt lat="50.741820" lon="6.379365">
        <ele>352.500000</ele>
        <time>2009-07-19T18:39:34Z</time>
      </trkpt>
      <trkpt lat="50.741583" lon="6.379543">
        <ele>353.900000</ele>
        <time>2009-07-19T18:39:56Z</time>
      </trkpt>
      <trkpt lat="50.741397" lon="6.379733">
        <ele>354.900000</ele>
        <time>2009-07-19T18:40:14Z</time>
      </trkpt>
      <trkpt lat="50.741217" lon="6.379745">
        <ele>354.900000</ele>
        <time>2009-07-19T18:40:28Z</time>
      </trkpt>
      <trkpt lat="50.741070" lon="6.379527">
        <ele>355.800000</ele>
        <time>2009-07-19T18:40:45Z</time>
      </trkpt>
      <trkpt lat="50.741055" lon="6.379497">
        <ele>355.800000</ele>
        <time>2009-07-19T18:40:47Z</time>
      </trkpt>
      <trkpt lat="50.740948" lon="6.379342">
        <ele>356.300000</ele>
        <time>2009-07-19T18:40:59Z</time>
      </trkpt>
      <trkpt lat="50.740830" lon="6.379197">
        <ele>356.800000</ele>
        <time>2009-07-19T18:41:11Z</time>
      </trkpt>
      <trkpt lat="50.740690" lon="6.379000">
        <ele>357.700000</ele>
        <time>2009-07-19T18:41:26Z</time>
      </trkpt>
      <trkpt lat="50.740575" lon="6.378812">
        <ele>359.200000</ele>
        <time>2009-07-19T18:41:40Z</time>
      </trkpt>
      <trkpt lat="50.740488" lon="6.378637">
        <ele>360.200000</ele>
        <time>2009-07-19T18:41:51Z</time>
      </trkpt>
      <trkpt lat="50.740425" lon="6.378512">
        <ele>361.100000</ele>
        <time>2009-07-19T18:42:00Z</time>
      </trkpt>
      <trkpt lat="50.740402" lon="6.378480">
        <ele>361.100000</ele>
        <time>2009-07-19T18:42:02Z</time>
      </trkpt>
      <trkpt lat="50.740285" lon="6.378327">
        <ele>361.100000</ele>
        <time>2009-07-19T18:42:14Z</time>
      </trkpt>
      <trkpt lat="50.740167" lon="6.378267">
        <ele>361.600000</ele>
        <time>2009-07-19T18:42:25Z</time>
      </trkpt>
      <trkpt lat="50.740017" lon="6.378210">
        <ele>361.600000</ele>
        <time>2009-07-19T18:42:37Z</time>
      </trkpt>
      <trkpt lat="50.739890" lon="6.378147">
        <ele>360.600000</ele>
        <time>2009-07-19T18:42:48Z</time>
      </trkpt>
      <trkpt lat="50.739863" lon="6.378137">
        <ele>364.000000</ele>
        <time>2009-07-19T18:42:50Z</time>
      </trkpt>
      <trkpt lat="50.739797" lon="6.378072">
        <ele>361.600000</ele>
        <time>2009-07-19T18:42:57Z</time>
      </trkpt>
      <trkpt lat="50.739742" lon="6.378050">
        <ele>363.500000</ele>
        <time>2009-07-19T18:43:02Z</time>
      </trkpt>
      <trkpt lat="50.739592" lon="6.377975">
        <ele>362.100000</ele>
        <time>2009-07-19T18:43:14Z</time>
      </trkpt>
      <trkpt lat="50.739447" lon="6.377895">
        <ele>361.100000</ele>
        <time>2009-07-19T18:43:27Z</time>
      </trkpt>
      <trkpt lat="50.739383" lon="6.377933">
        <ele>361.600000</ele>
        <time>2009-07-19T18:43:33Z</time>
      </trkpt>
      <trkpt lat="50.739322" lon="6.377958">
        <ele>361.100000</ele>
        <time>2009-07-19T18:43:38Z</time>
      </trkpt>
      <trkpt lat="50.739163" lon="6.378082">
        <ele>362.600000</ele>
        <time>2009-07-19T18:43:52Z</time>
      </trkpt>
      <trkpt lat="50.739103" lon="6.378135">
        <ele>363.000000</ele>
        <time>2009-07-19T18:43:58Z</time>
      </trkpt>
      <trkpt lat="50.739000" lon="6.378197">
        <ele>363.500000</ele>
        <time>2009-07-19T18:44:07Z</time>
      </trkpt>
      <trkpt lat="50.738942" lon="6.378233">
        <ele>363.000000</ele>
        <time>2009-07-19T18:44:12Z</time>
      </trkpt>
      <trkpt lat="50.738880" lon="6.378253">
        <ele>364.500000</ele>
        <time>2009-07-19T18:44:17Z</time>
      </trkpt>
      <trkpt lat="50.738707" lon="6.378387">
        <ele>365.000000</ele>
        <time>2009-07-19T18:44:33Z</time>
      </trkpt>
      <trkpt lat="50.738518" lon="6.378527">
        <ele>365.400000</ele>
        <time>2009-07-19T18:44:50Z</time>
      </trkpt>
      <trkpt lat="50.738282" lon="6.378652">
        <ele>365.900000</ele>
        <time>2009-07-19T18:45:10Z</time>
      </trkpt>
      <trkpt lat="50.738267" lon="6.378660">
        <ele>365.900000</ele>
        <time>2009-07-19T18:45:12Z</time>
      </trkpt>
      <trkpt lat="50.738108" lon="6.378752">
        <ele>365.900000</ele>
        <time>2009-07-19T18:45:25Z</time>
      </trkpt>
      <trkpt lat="50.737907" lon="6.378878">
        <ele>366.400000</ele>
        <time>2009-07-19T18:45:43Z</time>
      </trkpt>
      <trkpt lat="50.737705" lon="6.378968">
        <ele>367.400000</ele>
        <time>2009-07-19T18:46:00Z</time>
      </trkpt>
      <trkpt lat="50.737517" lon="6.379075">
        <ele>367.800000</ele>
        <time>2009-07-19T18:46:17Z</time>
      </trkpt>
      <trkpt lat="50.737420" lon="6.379112">
        <ele>368.300000</ele>
        <time>2009-07-19T18:46:25Z</time>
      </trkpt>
      <trkpt lat="50.737183" lon="6.379223">
        <ele>368.300000</ele>
        <time>2009-07-19T18:46:45Z</time>
      </trkpt>
      <trkpt lat="50.737015" lon="6.379298">
        <ele>369.300000</ele>
        <time>2009-07-19T18:46:59Z</time>
      </trkpt>
      <trkpt lat="50.736860" lon="6.379382">
        <ele>369.300000</ele>
        <time>2009-07-19T18:47:13Z</time>
      </trkpt>
      <trkpt lat="50.736728" lon="6.379467">
        <ele>369.800000</ele>
        <time>2009-07-19T18:47:24Z</time>
      </trkpt>
      <trkpt lat="50.736527" lon="6.379567">
        <ele>369.800000</ele>
        <time>2009-07-19T18:47:42Z</time>
      </trkpt>
      <trkpt lat="50.736317" lon="6.379665">
        <ele>370.700000</ele>
        <time>2009-07-19T18:48:00Z</time>
      </trkpt>
      <trkpt lat="50.736148" lon="6.379747">
        <ele>371.200000</ele>
        <time>2009-07-19T18:48:14Z</time>
      </trkpt>
      <trkpt lat="50.735920" lon="6.379865">
        <ele>371.200000</ele>
        <time>2009-07-19T18:48:33Z</time>
      </trkpt>
      <trkpt lat="50.735705" lon="6.379985">
        <ele>371.700000</ele>
        <time>2009-07-19T18:48:52Z</time>
      </trkpt>
      <trkpt lat="50.735508" lon="6.380083">
        <ele>371.700000</ele>
        <time>2009-07-19T18:49:09Z</time>
      </trkpt>
      <trkpt lat="50.735313" lon="6.380173">
        <ele>371.200000</ele>
        <time>2009-07-19T18:49:26Z</time>
      </trkpt>
      <trkpt lat="50.735227" lon="6.380240">
        <ele>371.700000</ele>
        <time>2009-07-19T18:49:33Z</time>
      </trkpt>
      <trkpt lat="50.735220" lon="6.380243">
        <ele>371.200000</ele>
        <time>2009-07-19T18:49:34Z</time>
      </trkpt>
      <trkpt lat="50.735217" lon="6.380250">
        <ele>368.800000</ele>
        <time>2009-07-19T18:49:35Z</time>
      </trkpt>
    </trkseg>
  </trk>

</gpx>
